Archival Weather

Norman Y Mineta San Jose Intl

San Jose, California (KSJC)

Report from: Saturday, September 30, 2023 6:53 PM PDT
Current time: Thursday, July 18, 2024 6:57 PM PDT

Current weather – Weather history – Daily summaries
Weather forecast

Temperature17.8°C (64.0°F)
Dew point10.6°C (51.1°F)
Winds 5 kts (2.6 m/s, 5.8 mph) North-Northwest (330°)
Visibility10 mi. (16.1 km)
Clouds Few clouds 1,400 ft. (427 m)
Ceiling: Broken clouds 3,300 ft. (1,006 m)
Broken clouds 6,000 ft. (1,829 m)
Altimeter29.79 in.Hg (1009 mB)
Relative humidity63 %
Density altitude664 ft. (202 m)
Sea-level pressure100.9 kPa (1009 mB, 29.79 in.Hg)
Remarks Automated weather observing station with precipitation discriminator
Flight conditions Visual Meteorological Conditions
Raw dataKSJC 010153Z 33005KT 10SM FEW014 BKN033 BKN060 18/11 A2979 RMK AO2 SLP087 T01780106
An error has occurred. This application may no longer respond until reloaded. Reload 🗙